createdAt,value
2019-03-27T00:00:06.489Z,18.81
2019-03-27T00:01:07.448Z,18.81
2019-03-27T00:02:04.161Z,18.81
2019-03-27T00:03:00.873Z,18.81
2019-03-27T00:03:57.588Z,18.81
2019-03-27T00:04:54.301Z,18.75
2019-03-27T00:05:51.010Z,18.75
2019-03-27T00:06:47.721Z,18.75
2019-03-27T00:07:44.437Z,18.75
2019-03-27T00:08:41.173Z,18.75
2019-03-27T00:09:37.881Z,18.75
2019-03-27T00:10:34.601Z,18.75
2019-03-27T00:11:31.312Z,18.75
2019-03-27T00:12:28.022Z,18.75
2019-03-27T00:13:24.741Z,18.75
2019-03-27T00:14:21.476Z,18.75
2019-03-27T00:15:18.197Z,18.75
2019-03-27T00:16:14.909Z,18.75
2019-03-27T00:17:11.618Z,18.75
2019-03-27T00:18:08.329Z,18.75
2019-03-27T00:19:05.069Z,18.75
2019-03-27T00:20:01.788Z,18.75
2019-03-27T00:20:58.501Z,18.75
2019-03-27T00:21:55.209Z,18.75
2019-03-27T00:22:51.922Z,18.75
2019-03-27T00:23:48.637Z,18.75
2019-03-27T00:24:45.353Z,18.75
2019-03-27T00:25:42.061Z,18.75
2019-03-27T00:26:38.761Z,18.75
2019-03-27T00:27:35.491Z,18.75
2019-03-27T00:28:32.205Z,18.75
2019-03-27T00:29:28.904Z,18.75
2019-03-27T00:30:25.636Z,18.75
2019-03-27T00:31:22.345Z,18.75
2019-03-27T00:32:19.052Z,18.75
2019-03-27T00:33:15.760Z,18.75
2019-03-27T00:34:12.474Z,18.75
2019-03-27T00:35:09.180Z,18.75
2019-03-27T00:36:05.917Z,18.75
2019-03-27T00:37:02.629Z,18.69
2019-03-27T00:37:59.346Z,18.69
2019-03-27T00:38:56.056Z,18.69
2019-03-27T00:39:52.765Z,18.69
2019-03-27T00:40:49.502Z,18.69
2019-03-27T00:41:46.225Z,18.69
2019-03-27T00:42:42.953Z,18.69
2019-03-27T00:43:39.670Z,18.69
2019-03-27T00:44:36.376Z,18.69
2019-03-27T00:45:33.085Z,18.69
2019-03-27T00:46:29.800Z,18.69
2019-03-27T00:47:26.512Z,18.69
2019-03-27T00:48:23.224Z,18.69
2019-03-27T00:49:19.925Z,18.69
2019-03-27T00:50:16.638Z,18.69
2019-03-27T00:51:13.377Z,18.69
2019-03-27T00:52:10.094Z,18.69
2019-03-27T00:53:06.800Z,18.69
2019-03-27T00:54:03.514Z,18.69
2019-03-27T00:55:00.372Z,18.69
2019-03-27T00:55:57.061Z,18.69
2019-03-27T00:56:53.765Z,18.69
2019-03-27T00:57:50.481Z,18.69
2019-03-27T00:58:47.198Z,18.69
2019-03-27T00:59:43.906Z,18.69
2019-03-27T01:00:40.620Z,18.69
2019-03-27T01:01:37.339Z,18.69
2019-03-27T01:02:34.053Z,18.69
2019-03-27T01:03:30.775Z,18.69
2019-03-27T01:04:27.485Z,18.69
2019-03-27T01:05:24.209Z,18.69
2019-03-27T01:06:20.941Z,18.69
2019-03-27T01:07:17.649Z,18.69
2019-03-27T01:08:14.364Z,18.62
2019-03-27T01:09:11.079Z,18.69
2019-03-27T01:10:07.789Z,18.69
2019-03-27T01:11:04.506Z,18.62
2019-03-27T01:12:01.246Z,18.62
2019-03-27T01:12:57.966Z,18.62
2019-03-27T01:13:54.686Z,18.62
2019-03-27T01:14:51.378Z,18.62
2019-03-27T01:15:48.072Z,18.62
2019-03-27T01:16:44.796Z,18.62
2019-03-27T01:17:41.479Z,18.62
2019-03-27T01:18:38.084Z,18.62
2019-03-27T01:19:34.773Z,18.62
2019-03-27T01:20:31.476Z,18.62
2019-03-27T01:21:28.165Z,18.62
2019-03-27T01:22:24.792Z,18.62
2019-03-27T01:23:21.530Z,18.62
2019-03-27T01:24:18.177Z,18.62
2019-03-27T01:25:14.881Z,18.62
2019-03-27T01:26:11.576Z,18.62
2019-03-27T01:27:08.268Z,18.62
2019-03-27T01:28:04.992Z,18.62
2019-03-27T01:29:01.685Z,18.62
2019-03-27T01:29:58.385Z,18.62
2019-03-27T01:30:55.094Z,18.62
2019-03-27T01:31:51.785Z,18.62
2019-03-27T01:32:48.480Z,18.62
2019-03-27T01:33:45.200Z,18.62
2019-03-27T01:34:41.802Z,18.62
2019-03-27T01:35:38.500Z,18.62
2019-03-27T01:36:35.192Z,18.62
2019-03-27T01:37:31.895Z,18.62
2019-03-27T01:38:28.987Z,18.62
2019-03-27T01:39:25.808Z,18.62
2019-03-27T01:40:22.495Z,18.62
2019-03-27T01:41:19.096Z,18.62
2019-03-27T01:42:15.700Z,18.62
2019-03-27T01:43:12.400Z,18.62
2019-03-27T01:44:09.096Z,18.56
2019-03-27T01:45:05.805Z,18.62
2019-03-27T01:46:02.500Z,18.56
2019-03-27T01:46:59.195Z,18.56
2019-03-27T01:47:55.896Z,18.56
2019-03-27T01:48:52.632Z,18.56
2019-03-27T01:49:49.332Z,18.56
2019-03-27T01:50:46.037Z,18.56
2019-03-27T01:51:42.736Z,18.56
2019-03-27T01:52:39.436Z,18.56
2019-03-27T01:53:36.143Z,18.56
2019-03-27T01:54:32.862Z,18.56
2019-03-27T01:55:29.547Z,18.56
2019-03-27T01:56:26.140Z,18.56
2019-03-27T01:57:22.840Z,18.56
2019-03-27T01:58:19.536Z,18.56
2019-03-27T01:59:16.140Z,18.56
2019-03-27T02:00:12.924Z,18.56
2019-03-27T02:01:09.558Z,18.56
2019-03-27T02:02:06.249Z,18.56
2019-03-27T02:03:02.948Z,18.56
2019-03-27T02:03:59.653Z,18.56
2019-03-27T02:04:56.365Z,18.56
2019-03-27T02:05:53.068Z,18.56
2019-03-27T02:06:49.756Z,18.56
2019-03-27T02:07:46.356Z,18.56
2019-03-27T02:08:43.053Z,18.56
2019-03-27T02:09:39.752Z,18.56
2019-03-27T02:10:36.480Z,18.56
2019-03-27T02:11:33.164Z,18.56
2019-03-27T02:12:29.768Z,18.56
2019-03-27T02:13:26.452Z,18.56
2019-03-27T02:14:23.042Z,18.50
2019-03-27T02:15:19.752Z,18.56
2019-03-27T02:16:16.480Z,18.56
2019-03-27T02:17:13.178Z,18.56
2019-03-27T02:18:09.876Z,18.50
2019-03-27T02:19:06.583Z,18.56
2019-03-27T02:20:03.280Z,18.56
2019-03-27T02:20:59.989Z,18.50
2019-03-27T02:21:56.683Z,18.50
2019-03-27T02:22:53.379Z,18.50
2019-03-27T02:23:50.072Z,18.50
2019-03-27T02:24:46.691Z,18.50
2019-03-27T02:25:43.408Z,18.50
2019-03-27T02:26:40.103Z,18.50
2019-03-27T02:27:36.797Z,18.50
2019-03-27T02:28:33.400Z,18.50
2019-03-27T02:29:30.096Z,18.50
2019-03-27T02:30:26.794Z,18.50
2019-03-27T02:31:23.523Z,18.50
2019-03-27T02:32:20.887Z,18.50
2019-03-27T02:33:17.936Z,18.50
2019-03-27T02:34:14.634Z,18.50
2019-03-27T02:35:11.320Z,18.50
2019-03-27T02:36:07.948Z,18.50
2019-03-27T02:37:04.632Z,18.50
2019-03-27T02:38:01.329Z,18.50
2019-03-27T02:38:58.017Z,18.50
2019-03-27T02:39:54.728Z,18.50
2019-03-27T02:40:51.408Z,18.50
2019-03-27T02:41:48.114Z,18.50
2019-03-27T02:42:44.804Z,18.50
2019-03-27T02:43:41.507Z,18.50
2019-03-27T02:44:38.205Z,18.50
2019-03-27T02:45:34.902Z,18.50
2019-03-27T02:46:31.625Z,18.50
2019-03-27T02:47:28.321Z,18.50
2019-03-27T02:48:25.027Z,18.50
2019-03-27T02:49:21.709Z,18.44
2019-03-27T02:50:18.401Z,18.50
2019-03-27T02:51:15.030Z,18.50
2019-03-27T02:52:11.749Z,18.50
2019-03-27T02:53:08.455Z,18.50
2019-03-27T02:54:05.146Z,18.44
2019-03-27T02:55:01.842Z,18.50
2019-03-27T02:55:58.527Z,18.44
2019-03-27T02:56:55.120Z,18.44
2019-03-27T02:57:51.725Z,18.44
2019-03-27T02:58:48.422Z,18.50
2019-03-27T02:59:45.112Z,18.44
2019-03-27T03:00:41.806Z,18.44
2019-03-27T03:01:38.530Z,18.44
2019-03-27T03:02:35.234Z,18.44
2019-03-27T03:03:31.943Z,18.44
2019-03-27T03:04:28.633Z,18.44
2019-03-27T03:05:25.340Z,18.44
2019-03-27T03:06:21.952Z,18.44
2019-03-27T03:07:18.680Z,18.44
2019-03-27T03:08:15.383Z,18.44
2019-03-27T03:09:12.072Z,18.44
2019-03-27T03:10:08.672Z,18.44
2019-03-27T03:11:05.368Z,18.44
2019-03-27T03:12:02.097Z,18.44
2019-03-27T03:12:58.780Z,18.44
2019-03-27T03:13:55.490Z,18.44
2019-03-27T03:14:52.171Z,18.44
2019-03-27T03:15:48.878Z,18.44
2019-03-27T03:16:45.606Z,18.44
2019-03-27T03:17:42.296Z,18.44
2019-03-27T03:18:38.906Z,18.44
2019-03-27T03:19:35.605Z,18.44
2019-03-27T03:20:32.289Z,18.44
2019-03-27T03:21:28.984Z,18.44
2019-03-27T03:22:25.708Z,18.44
2019-03-27T03:23:22.404Z,18.44
2019-03-27T03:24:19.092Z,18.44
2019-03-27T03:25:15.793Z,18.44
2019-03-27T03:26:12.492Z,18.44
2019-03-27T03:27:09.219Z,18.44
2019-03-27T03:28:05.901Z,18.44
2019-03-27T03:29:02.506Z,18.44
2019-03-27T03:29:59.197Z,18.44
2019-03-27T03:30:55.917Z,18.44
2019-03-27T03:31:52.625Z,18.44
2019-03-27T03:32:49.309Z,18.37
2019-03-27T03:33:46.031Z,18.44
2019-03-27T03:34:42.730Z,18.44
2019-03-27T03:35:39.416Z,18.37
2019-03-27T03:36:36.121Z,18.37
2019-03-27T03:37:32.854Z,18.37
2019-03-27T03:38:29.549Z,18.37
2019-03-27T03:39:26.244Z,18.37
2019-03-27T03:40:22.936Z,18.37
2019-03-27T03:41:19.545Z,18.37
2019-03-27T03:42:16.356Z,18.37
2019-03-27T03:43:12.958Z,18.37
2019-03-27T03:44:09.661Z,18.37
2019-03-27T03:45:06.363Z,18.37
2019-03-27T03:46:02.960Z,18.37
2019-03-27T03:47:00.635Z,18.37
2019-03-27T03:47:57.478Z,18.37
2019-03-27T03:48:54.174Z,18.37
2019-03-27T03:49:50.881Z,18.37
2019-03-27T03:50:47.575Z,18.37
2019-03-27T03:51:44.266Z,18.37
2019-03-27T03:52:45.402Z,18.37
2019-03-27T03:53:39.488Z,18.37
2019-03-27T03:54:36.094Z,18.37
2019-03-27T03:55:32.792Z,18.37
2019-03-27T03:56:29.487Z,18.37
2019-03-27T03:57:26.191Z,18.37
2019-03-27T03:58:22.804Z,18.37
2019-03-27T03:59:19.499Z,18.37
2019-03-27T04:00:16.206Z,18.37
2019-03-27T04:01:12.884Z,18.37
2019-03-27T04:02:09.609Z,18.37
2019-03-27T04:03:06.301Z,18.37
2019-03-27T04:04:03.003Z,18.37
2019-03-27T04:04:59.685Z,18.37
2019-03-27T04:05:56.377Z,18.37
2019-03-27T04:06:53.064Z,18.37
2019-03-27T04:07:49.771Z,18.37
2019-03-27T04:08:46.503Z,18.37
2019-03-27T04:09:43.191Z,18.37
2019-03-27T04:10:39.885Z,18.37
2019-03-27T04:11:36.588Z,18.37
2019-03-27T04:12:33.318Z,18.37
2019-03-27T04:13:30.016Z,18.37
2019-03-27T04:14:26.696Z,18.31
2019-03-27T04:15:23.304Z,18.37
2019-03-27T04:16:20.020Z,18.37
2019-03-27T04:17:18.084Z,18.31
2019-03-27T04:18:14.845Z,18.31
2019-03-27T04:19:11.569Z,18.37
2019-03-27T04:20:08.278Z,18.31
2019-03-27T04:21:04.981Z,18.31
2019-03-27T04:22:01.668Z,18.31
2019-03-27T04:22:58.384Z,18.31
2019-03-27T04:23:55.068Z,18.31
2019-03-27T04:24:51.662Z,18.31
2019-03-27T04:26:08.364Z,18.31
2019-03-27T04:26:46.964Z,18.31
2019-03-27T04:27:43.684Z,18.31
2019-03-27T04:28:40.426Z,18.31
2019-03-27T04:29:37.085Z,18.31
2019-03-27T04:30:33.687Z,18.31
2019-03-27T04:31:30.378Z,18.31
2019-03-27T04:32:27.097Z,18.31
2019-03-27T04:33:23.795Z,18.31
2019-03-27T04:34:20.403Z,18.31
2019-03-27T04:35:17.101Z,18.31
2019-03-27T04:36:13.804Z,18.31
2019-03-27T04:37:10.495Z,18.31
2019-03-27T04:38:07.229Z,18.31
2019-03-27T04:39:04.153Z,18.31
2019-03-27T04:40:00.876Z,18.31
2019-03-27T04:40:57.561Z,18.31
2019-03-27T04:41:54.159Z,18.31
2019-03-27T04:42:50.796Z,18.31
2019-03-27T04:43:47.492Z,18.31
2019-03-27T04:44:44.193Z,18.31
2019-03-27T04:45:40.884Z,18.31
2019-03-27T04:46:37.587Z,18.31
2019-03-27T04:47:34.286Z,18.31
2019-03-27T04:48:31.006Z,18.31
2019-03-27T04:49:27.705Z,18.31
2019-03-27T04:50:24.396Z,18.31
2019-03-27T04:51:21.090Z,18.31
2019-03-27T04:52:17.791Z,18.31
2019-03-27T04:53:14.508Z,18.31
2019-03-27T04:54:11.212Z,18.31
2019-03-27T04:55:07.921Z,18.31
2019-03-27T04:56:04.622Z,18.31
2019-03-27T04:57:01.316Z,18.31
2019-03-27T04:57:58.040Z,18.31
2019-03-27T04:58:54.719Z,18.31
2019-03-27T04:59:51.308Z,18.31
2019-03-27T05:00:47.908Z,18.31
2019-03-27T05:01:44.608Z,18.31
2019-03-27T05:02:41.301Z,18.31
2019-03-27T05:03:38.027Z,18.31
2019-03-27T05:04:34.934Z,18.25
2019-03-27T05:05:31.632Z,18.25
2019-03-27T05:06:28.332Z,18.25
2019-03-27T05:07:25.028Z,18.31
2019-03-27T05:08:21.661Z,18.25
2019-03-27T05:09:18.469Z,18.25
2019-03-27T05:10:15.160Z,18.25
2019-03-27T05:11:11.857Z,18.31
2019-03-27T05:12:08.558Z,18.25
2019-03-27T05:13:05.282Z,18.25
2019-03-27T05:14:01.973Z,18.25
2019-03-27T05:14:58.663Z,18.25
2019-03-27T05:15:55.357Z,18.25
2019-03-27T05:16:52.056Z,18.25
2019-03-27T05:17:48.752Z,18.25
2019-03-27T05:18:45.464Z,18.25
2019-03-27T05:19:42.088Z,18.25
2019-03-27T05:20:38.776Z,18.25
2019-03-27T05:21:35.472Z,18.25
2019-03-27T05:22:32.164Z,18.25
2019-03-27T05:23:28.796Z,18.25
2019-03-27T05:24:25.499Z,18.25
2019-03-27T05:25:22.197Z,18.25
2019-03-27T05:26:18.884Z,18.25
2019-03-27T05:27:15.485Z,18.25
2019-03-27T05:28:12.209Z,18.25
2019-03-27T05:29:08.908Z,18.25
2019-03-27T05:30:05.600Z,18.25
2019-03-27T05:31:02.292Z,18.25
2019-03-27T05:31:58.988Z,18.25
2019-03-27T05:32:55.682Z,18.25
2019-03-27T05:33:52.304Z,18.25
2019-03-27T05:34:48.912Z,18.25
2019-03-27T05:35:45.616Z,18.25
2019-03-27T05:36:42.320Z,18.25
2019-03-27T05:37:39.010Z,18.25
2019-03-27T05:38:35.637Z,18.25
2019-03-27T05:39:32.341Z,18.25
2019-03-27T05:40:29.036Z,18.25
2019-03-27T05:41:25.640Z,18.25
2019-03-27T05:42:22.232Z,18.25
2019-03-27T05:43:18.840Z,18.25
2019-03-27T05:44:15.533Z,18.25
2019-03-27T05:45:12.223Z,18.25
2019-03-27T05:46:08.928Z,18.19
2019-03-27T05:47:05.633Z,18.25
2019-03-27T05:48:02.327Z,18.25
2019-03-27T05:48:59.048Z,18.25
2019-03-27T05:49:55.747Z,18.25
2019-03-27T05:50:52.446Z,18.25
2019-03-27T05:51:49.133Z,18.19
2019-03-27T05:52:45.826Z,18.19
2019-03-27T05:53:42.548Z,18.19
2019-03-27T05:54:39.149Z,18.25
2019-03-27T05:55:35.866Z,18.19
2019-03-27T05:56:32.572Z,18.19
2019-03-27T05:57:29.261Z,18.19
2019-03-27T05:58:25.865Z,18.19
2019-03-27T05:59:22.552Z,18.19
2019-03-27T06:00:19.252Z,18.19
2019-03-27T06:01:15.960Z,18.19
2019-03-27T06:02:12.656Z,18.19
2019-03-27T06:03:09.344Z,18.19
2019-03-27T06:04:05.968Z,18.19
2019-03-27T06:05:02.660Z,18.19
2019-03-27T06:05:59.357Z,18.19
2019-03-27T06:06:56.068Z,18.19
2019-03-27T06:07:52.768Z,18.19
2019-03-27T06:08:49.488Z,18.19
2019-03-27T06:09:46.176Z,18.19
2019-03-27T06:10:42.781Z,18.19
2019-03-27T06:11:39.463Z,18.19
2019-03-27T06:12:36.133Z,18.19
2019-03-27T06:13:32.767Z,18.19
2019-03-27T06:14:29.459Z,18.19
2019-03-27T06:15:26.064Z,18.19
2019-03-27T06:16:22.752Z,18.19
2019-03-27T06:17:19.453Z,18.19
2019-03-27T06:18:16.146Z,18.19
2019-03-27T06:19:12.867Z,18.19
2019-03-27T06:20:09.565Z,18.19
2019-03-27T06:21:06.253Z,18.19
2019-03-27T06:22:02.947Z,18.19
2019-03-27T06:22:59.645Z,18.19
2019-03-27T06:23:56.359Z,18.19
2019-03-27T06:24:53.060Z,18.19
2019-03-27T06:25:49.764Z,18.19
2019-03-27T06:26:46.456Z,18.19
2019-03-27T06:27:43.068Z,18.19
2019-03-27T06:28:39.764Z,18.19
2019-03-27T06:29:36.492Z,18.19
2019-03-27T06:30:33.201Z,18.19
2019-03-27T06:31:29.885Z,18.19
2019-03-27T06:32:26.593Z,18.19
2019-03-27T06:33:23.313Z,18.19
2019-03-27T06:34:20.011Z,18.19
2019-03-27T06:35:19.964Z,18.19
2019-03-27T06:36:15.204Z,18.19
2019-03-27T06:37:11.896Z,18.19
2019-03-27T06:38:08.590Z,18.19
2019-03-27T06:39:05.180Z,18.19
2019-03-27T06:40:01.800Z,18.12
2019-03-27T06:40:58.397Z,18.19
2019-03-27T06:41:55.105Z,18.19
2019-03-27T06:42:51.791Z,18.19
2019-03-27T06:43:48.480Z,18.19
2019-03-27T06:44:45.116Z,18.19
2019-03-27T06:45:41.813Z,18.12
2019-03-27T06:46:38.496Z,18.12
2019-03-27T06:47:35.108Z,18.19
2019-03-27T06:48:31.809Z,18.19
2019-03-27T06:49:28.536Z,18.12
2019-03-27T06:50:25.258Z,18.12
2019-03-27T06:51:25.014Z,18.12
2019-03-27T06:52:20.452Z,18.12
2019-03-27T06:53:17.157Z,18.12
2019-03-27T06:54:13.873Z,18.12
2019-03-27T06:55:10.588Z,18.12
2019-03-27T06:56:07.180Z,18.12
2019-03-27T06:57:03.783Z,18.12
2019-03-27T06:58:00.467Z,18.12
2019-03-27T06:58:57.084Z,18.12
2019-03-27T06:59:53.801Z,18.12
2019-03-27T07:00:50.496Z,18.06
2019-03-27T07:01:47.196Z,17.44
2019-03-27T07:02:43.884Z,17.25
2019-03-27T07:03:40.586Z,17.25
2019-03-27T07:04:37.305Z,17.81
2019-03-27T07:05:34.000Z,19.31
2019-03-27T07:06:30.693Z,21.56
2019-03-27T07:07:27.396Z,24.12
2019-03-27T07:08:24.093Z,26.50
2019-03-27T07:09:20.819Z,28.31
2019-03-27T07:10:17.544Z,29.69
2019-03-27T07:11:14.240Z,30.69
2019-03-27T07:12:20.935Z,31.44
2019-03-27T07:13:09.436Z,31.94
2019-03-27T07:14:06.048Z,32.31
2019-03-27T07:15:02.785Z,32.63
2019-03-27T07:15:59.488Z,32.88
2019-03-27T07:16:56.180Z,33.13
2019-03-27T07:17:52.875Z,33.31
2019-03-27T07:18:49.572Z,33.56
2019-03-27T07:19:46.292Z,33.81
2019-03-27T07:20:43.008Z,34.06
2019-03-27T07:21:39.700Z,34.31
2019-03-27T07:22:36.404Z,34.63
2019-03-27T07:23:33.113Z,34.81
2019-03-27T07:24:29.792Z,35.06
2019-03-27T07:25:26.600Z,35.25
2019-03-27T07:26:23.317Z,35.50
2019-03-27T07:27:20.008Z,35.69
2019-03-27T07:28:16.613Z,35.88
2019-03-27T07:29:13.384Z,36.06
2019-03-27T07:30:10.044Z,36.25
2019-03-27T07:31:06.657Z,36.44
2019-03-27T07:32:03.352Z,36.56
2019-03-27T07:33:00.054Z,36.75
2019-03-27T07:33:56.756Z,36.63
2019-03-27T07:34:53.494Z,36.19
2019-03-27T07:35:50.190Z,35.75
2019-03-27T07:36:46.897Z,35.50
2019-03-27T07:37:43.587Z,35.31
2019-03-27T07:38:40.285Z,35.19
2019-03-27T07:39:36.989Z,35.00
2019-03-27T07:40:33.954Z,34.88
2019-03-27T07:41:30.652Z,34.81
2019-03-27T07:42:28.863Z,34.69
2019-03-27T07:43:25.760Z,34.63
2019-03-27T07:44:22.456Z,34.56
2019-03-27T07:45:19.177Z,34.44
2019-03-27T07:46:15.887Z,34.38
2019-03-27T07:47:12.590Z,34.31
2019-03-27T07:48:09.273Z,34.31
2019-03-27T07:49:05.977Z,34.25
2019-03-27T07:50:02.664Z,34.19
2019-03-27T07:50:59.304Z,34.19
2019-03-27T07:51:56.004Z,34.13
2019-03-27T07:52:52.708Z,34.13
2019-03-27T07:53:49.421Z,34.13
2019-03-27T07:54:46.124Z,34.13
2019-03-27T07:55:42.804Z,34.06
2019-03-27T07:56:39.440Z,34.06
2019-03-27T07:57:36.133Z,34.06
2019-03-27T07:58:32.849Z,34.06
2019-03-27T07:59:29.544Z,34.00
2019-03-27T08:00:26.240Z,33.94
2019-03-27T08:01:23.020Z,33.94
2019-03-27T08:02:19.627Z,33.88
2019-03-27T08:03:16.323Z,33.88
2019-03-27T08:04:14.559Z,33.81
2019-03-27T08:05:11.324Z,33.75
2019-03-27T08:06:08.113Z,33.75
2019-03-27T08:07:04.746Z,33.69
2019-03-27T08:08:01.424Z,33.63
2019-03-27T08:08:58.033Z,33.63
2019-03-27T08:09:54.723Z,33.56
2019-03-27T08:10:51.424Z,33.56
2019-03-27T08:11:48.142Z,33.50
2019-03-27T08:12:44.862Z,33.50
2019-03-27T08:13:41.573Z,33.44
2019-03-27T08:14:38.268Z,33.38
2019-03-27T08:15:34.859Z,33.38
2019-03-27T08:16:31.582Z,33.31
2019-03-27T08:17:28.276Z,34.44
2019-03-27T08:18:25.001Z,33.25
2019-03-27T08:19:21.701Z,30.81
2019-03-27T08:20:18.405Z,28.94
2019-03-27T08:21:15.100Z,29.81
2019-03-27T08:22:11.804Z,31.25
2019-03-27T08:23:08.500Z,32.00
2019-03-27T08:24:05.186Z,32.25
2019-03-27T08:25:01.791Z,32.38
2019-03-27T08:25:58.489Z,32.44
2019-03-27T08:26:55.200Z,32.63
2019-03-27T08:27:51.802Z,33.25
2019-03-27T08:28:48.496Z,33.88
2019-03-27T08:29:45.202Z,34.25
2019-03-27T08:30:41.892Z,34.44
2019-03-27T08:31:38.585Z,34.44
2019-03-27T08:32:37.523Z,34.19
2019-03-27T08:33:33.802Z,33.63
2019-03-27T08:34:30.501Z,32.69
2019-03-27T08:35:27.197Z,31.56
2019-03-27T08:36:23.885Z,30.12
2019-03-27T08:37:20.596Z,29.19
2019-03-27T08:38:17.284Z,29.50
2019-03-27T08:39:13.936Z,30.75
2019-03-27T08:40:10.625Z,32.31
2019-03-27T08:41:07.320Z,33.75
2019-03-27T08:42:04.020Z,34.88
2019-03-27T08:43:00.752Z,35.81
2019-03-27T08:43:57.448Z,36.50
2019-03-27T08:44:54.061Z,37.06
2019-03-27T08:45:50.768Z,37.50
2019-03-27T08:46:47.470Z,37.81
2019-03-27T08:47:44.161Z,37.94
2019-03-27T08:48:40.898Z,37.63
2019-03-27T08:49:37.605Z,37.31
2019-03-27T08:50:34.303Z,37.00
2019-03-27T08:51:30.998Z,36.75
2019-03-27T08:52:27.714Z,36.50
2019-03-27T08:53:24.445Z,36.31
2019-03-27T08:54:21.147Z,36.13
2019-03-27T08:55:17.832Z,35.88
2019-03-27T08:56:14.521Z,35.44
2019-03-27T08:57:11.122Z,34.88
2019-03-27T08:58:07.821Z,34.00
2019-03-27T08:59:04.524Z,33.00
2019-03-27T09:00:02.708Z,31.81
2019-03-27T09:00:59.611Z,30.62
2019-03-27T09:01:56.310Z,29.94
2019-03-27T09:02:53.008Z,30.37
2019-03-27T09:03:49.724Z,31.75
2019-03-27T09:04:46.324Z,33.44
2019-03-27T09:05:43.029Z,35.13
2019-03-27T09:06:39.729Z,36.38
2019-03-27T09:07:36.420Z,36.94
2019-03-27T09:08:33.120Z,37.00
2019-03-27T09:09:29.853Z,36.94
2019-03-27T09:10:26.576Z,36.75
2019-03-27T09:11:23.345Z,36.56
2019-03-27T09:12:20.059Z,36.38
2019-03-27T09:13:16.760Z,36.19
2019-03-27T09:14:13.485Z,35.88
2019-03-27T09:15:10.180Z,35.38
2019-03-27T09:16:06.881Z,34.63
2019-03-27T09:17:03.589Z,33.75
2019-03-27T09:18:00.293Z,32.75
2019-03-27T09:18:56.990Z,31.62
2019-03-27T09:19:53.718Z,30.56
2019-03-27T09:20:50.410Z,30.00
2019-03-27T09:21:47.108Z,30.56
2019-03-27T09:22:43.801Z,32.00
2019-03-27T09:23:40.500Z,33.69
2019-03-27T09:24:37.192Z,35.31
2019-03-27T09:25:33.917Z,36.38
2019-03-27T09:26:30.612Z,36.75
2019-03-27T09:27:27.316Z,36.75
2019-03-27T09:28:24.015Z,36.63
2019-03-27T09:29:20.623Z,36.44
2019-03-27T09:30:17.340Z,36.25
2019-03-27T09:31:14.040Z,35.94
2019-03-27T09:32:10.736Z,35.50
2019-03-27T09:33:07.349Z,34.94
2019-03-27T09:34:04.033Z,34.25
2019-03-27T09:35:00.734Z,33.38
2019-03-27T09:35:57.455Z,32.44
2019-03-27T09:36:54.235Z,31.44
2019-03-27T09:37:50.932Z,30.44
2019-03-27T09:38:47.636Z,29.87
2019-03-27T09:39:44.337Z,30.25
2019-03-27T09:40:41.052Z,31.62
2019-03-27T09:41:37.665Z,33.31
2019-03-27T09:42:34.359Z,34.94
2019-03-27T09:43:31.048Z,36.00
2019-03-27T09:44:27.741Z,36.38
2019-03-27T09:45:24.461Z,36.38
2019-03-27T09:46:21.173Z,36.25
2019-03-27T09:47:17.869Z,36.00
2019-03-27T09:48:14.564Z,35.69
2019-03-27T09:49:11.252Z,35.25
2019-03-27T09:50:07.939Z,34.81
2019-03-27T09:51:04.539Z,34.19
2019-03-27T09:52:01.149Z,33.38
2019-03-27T09:52:57.860Z,32.56
2019-03-27T09:53:54.563Z,31.62
2019-03-27T09:54:51.259Z,30.62
2019-03-27T09:55:47.996Z,29.94
2019-03-27T09:56:44.712Z,30.00
2019-03-27T09:57:41.400Z,31.00
2019-03-27T09:58:38.097Z,32.38
2019-03-27T09:59:34.780Z,33.81
2019-03-27T10:00:31.385Z,34.88
2019-03-27T10:01:28.115Z,35.19
2019-03-27T10:02:24.809Z,34.75
2019-03-27T10:03:21.496Z,33.69
2019-03-27T10:04:18.201Z,32.44
2019-03-27T10:05:14.933Z,31.31
2019-03-27T10:06:11.628Z,30.31
2019-03-27T10:07:08.328Z,29.56
2019-03-27T10:08:05.022Z,28.87
2019-03-27T10:09:01.724Z,28.25
2019-03-27T10:09:58.453Z,27.81
2019-03-27T10:10:55.144Z,27.44
2019-03-27T10:11:51.741Z,27.13
2019-03-27T10:12:48.336Z,26.94
2019-03-27T10:13:45.044Z,26.75
2019-03-27T10:14:41.747Z,26.62
2019-03-27T10:15:38.458Z,26.50
2019-03-27T10:16:35.156Z,26.37
2019-03-27T10:17:31.861Z,26.31
2019-03-27T10:18:28.556Z,26.19
2019-03-27T10:19:25.244Z,26.12
2019-03-27T10:20:21.949Z,26.00
2019-03-27T10:21:18.642Z,25.94
2019-03-27T10:22:15.340Z,25.81
2019-03-27T10:23:12.119Z,25.75
2019-03-27T10:24:08.740Z,25.69
2019-03-27T10:25:05.452Z,25.62
2019-03-27T10:26:02.173Z,25.56
2019-03-27T10:26:58.860Z,25.50
2019-03-27T10:27:55.466Z,25.44
2019-03-27T10:28:52.173Z,25.37
2019-03-27T10:29:48.886Z,25.31
2019-03-27T10:30:45.581Z,25.25
2019-03-27T10:31:42.300Z,25.19
2019-03-27T10:32:39.005Z,25.12
2019-03-27T10:33:35.705Z,25.12
2019-03-27T10:34:32.401Z,25.06
2019-03-27T10:35:29.088Z,25.00
2019-03-27T10:36:25.692Z,24.94
2019-03-27T10:37:22.412Z,24.87
2019-03-27T10:38:19.111Z,24.81
2019-03-27T10:39:15.804Z,24.75
2019-03-27T10:40:12.502Z,24.69
2019-03-27T10:41:09.207Z,24.69
2019-03-27T10:42:05.892Z,24.63
2019-03-27T10:43:02.625Z,24.56
2019-03-27T10:43:59.316Z,24.50
2019-03-27T10:44:56.008Z,24.44
2019-03-27T10:45:52.712Z,24.44
2019-03-27T10:46:49.411Z,24.37
2019-03-27T10:47:46.040Z,24.31
2019-03-27T10:48:52.627Z,24.25
2019-03-27T10:49:41.232Z,24.19
2019-03-27T10:50:37.928Z,24.19
2019-03-27T10:51:34.616Z,24.12
2019-03-27T10:52:31.221Z,24.06
2019-03-27T10:53:27.944Z,24.00
2019-03-27T10:54:24.648Z,24.00
2019-03-27T10:55:21.348Z,23.94
2019-03-27T10:56:18.046Z,23.87
2019-03-27T10:57:14.746Z,23.87
2019-03-27T10:58:11.432Z,23.81
2019-03-27T10:59:08.161Z,23.75
2019-03-27T11:00:04.849Z,23.75
2019-03-27T11:01:01.544Z,23.69
2019-03-27T11:01:58.232Z,23.69
2019-03-27T11:02:54.831Z,23.62
2019-03-27T11:03:51.456Z,23.56
2019-03-27T11:04:48.152Z,23.56
2019-03-27T11:05:44.847Z,23.50
2019-03-27T11:06:41.551Z,23.44
2019-03-27T11:07:38.289Z,23.44
2019-03-27T11:08:34.953Z,23.38
2019-03-27T11:09:31.685Z,23.31
2019-03-27T11:10:28.376Z,23.31
2019-03-27T11:11:25.076Z,23.25
2019-03-27T11:12:21.780Z,23.25
2019-03-27T11:13:18.480Z,23.19
2019-03-27T11:14:15.183Z,23.19
2019-03-27T11:15:11.888Z,23.12
2019-03-27T11:16:08.492Z,23.06
2019-03-27T11:17:05.181Z,23.06
2019-03-27T11:18:01.785Z,23.00
2019-03-27T11:18:58.472Z,23.00
2019-03-27T11:19:55.173Z,23.00
2019-03-27T11:20:51.898Z,22.94
2019-03-27T11:21:48.593Z,22.87
2019-03-27T11:22:45.302Z,22.87
2019-03-27T11:23:42.000Z,22.87
2019-03-27T11:24:38.698Z,22.81
2019-03-27T11:25:35.420Z,22.81
2019-03-27T11:26:32.138Z,22.75
2019-03-27T11:27:28.821Z,22.75
2019-03-27T11:28:25.521Z,22.69
2019-03-27T11:29:22.223Z,22.69
2019-03-27T11:30:18.920Z,22.62
2019-03-27T11:31:15.624Z,22.62
2019-03-27T11:32:12.328Z,22.56
2019-03-27T11:33:09.037Z,22.56
2019-03-27T11:34:05.725Z,22.56
2019-03-27T11:35:02.437Z,22.50
2019-03-27T11:35:59.158Z,22.50
2019-03-27T11:36:55.858Z,22.44
2019-03-27T11:37:52.553Z,22.44
2019-03-27T11:38:49.256Z,22.37
2019-03-27T11:39:45.962Z,22.37
2019-03-27T11:40:42.645Z,22.31
2019-03-27T11:41:39.379Z,22.31
2019-03-27T11:42:36.155Z,22.25
2019-03-27T11:43:32.881Z,22.25
2019-03-27T11:44:29.568Z,22.19
2019-03-27T11:45:26.263Z,22.19
2019-03-27T11:46:22.968Z,22.19
2019-03-27T11:47:19.669Z,22.13
2019-03-27T11:48:16.369Z,22.13
2019-03-27T11:49:13.065Z,22.06
2019-03-27T11:50:09.757Z,22.06
2019-03-27T11:51:06.484Z,22.00
2019-03-27T11:52:03.195Z,22.00
2019-03-27T11:52:59.892Z,22.00
2019-03-27T11:53:56.591Z,21.94
2019-03-27T11:54:53.296Z,21.94
2019-03-27T11:55:49.996Z,21.94
2019-03-27T11:56:46.760Z,21.87
2019-03-27T11:57:43.421Z,21.87
2019-03-27T11:58:40.118Z,21.81
2019-03-27T11:59:36.809Z,21.81
2019-03-27T12:00:33.440Z,21.81
2019-03-27T12:01:40.461Z,21.75
2019-03-27T12:02:28.564Z,21.75
2019-03-27T12:03:25.265Z,21.75
2019-03-27T12:04:21.960Z,21.69
2019-03-27T12:05:18.601Z,21.69
2019-03-27T12:06:15.304Z,21.69
2019-03-27T12:07:11.999Z,21.62
2019-03-27T12:08:08.715Z,21.62
2019-03-27T12:09:05.408Z,21.62
2019-03-27T12:10:02.109Z,21.56